• Join FlightAware (Why Join?)
  • Login
  • US Flag 
01:32PM EDT


 

Airport Tracker/Info


-or-


 

Live Flight TrackerFlight Track Log ✈ ASQ6115 ✈ 02-Jun-2013 ✈ KORD - KDAY

Flight Track Log - Related Links

Times and Time Zones

All times are in EDT time to prevent confusion due to time zone crossing. See the ASQ6115 flight status page for this flight to view local times or setup timezone preferences in your user account.

Time Position Orientation Groundspeed Altitude Reporting Facility
EDT Latitude Longitude Course Direction KTS MPH feet Rate Location/Type
01:58PM 41.9500 -87.9000 90° East 170 196 1,900  Level Chicago TRACON
01:59PM 41.9000 -87.8833 166° South 205 236 4,000 1,620 Climbing Chicago TRACON
01:59PM 41.8914 -87.8694 130° Southeast 216 249 4,100 2,220 Climbing Chicago Center
02:00PM 41.8253 -87.7825 136° Southeast 254 292 7,000 2,820 Climbing Chicago Center
02:01PM 41.9630 -87.4961 98° East  Level FlightAware Approximate
02:01PM 41.8317 -87.6708 86° East 300 345 10,000  Level Chicago Center
02:02PM 41.9497 -87.3625 95° East  Level FlightAware Approximate
02:03PM 41.9402 -87.2284 95° East  Level FlightAware Approximate
02:03PM 41.8531 -87.5572 76° East 310 357 12,500  Level Chicago Center
02:04PM 41.9333 -87.0942 90° East  Level FlightAware Approximate
02:04PM 41.8742 -87.4411 76° East 318 366 14,400  Level Chicago Center
02:05PM 41.8694 -87.2989 93° East 359 413 15,200 960 Climbing Chicago Center
02:06PM 41.8592 -87.1489 95° East 396 456 16,500 1,500 Climbing Chicago Center
02:07PM 41.8461 -86.9644 95° East 411 473 18,400 1,740 Climbing Chicago Center
02:08PM 41.8375 -86.8139 94° East 409 471 20,100 1,740 Climbing Chicago Center
02:09PM 41.8267 -86.6561 95° East 411 473 22,000 1,380 Climbing Chicago Center
02:10PM 41.8161 -86.5017 95° East 414 476 23,000 480 Climbing Chicago Center
02:11PM 41.8056 -86.3347 95° East 442 509 23,000  Level Chicago Center
02:12PM 41.7586 -86.1758 112° Southeast 453 521 23,000  Level Chicago Center
02:13PM 41.6728 -86.0475 132° Southeast 461 531 23,000  Level Chicago Center
02:14PM 41.5697 -85.8939 132° Southeast 466 536 23,000  Level Chicago Center
02:15PM 41.4844 -85.7669 132° Southeast 466 536 23,000  Level Chicago Center
02:16PM 41.3986 -85.6414 132° Southeast 465 535 23,000  Level Chicago Center
02:17PM 41.3139 -85.5153 132° Southeast 463 533 23,000  Level Chicago Center
02:18PM 41.2286 -85.3911 132° Southeast 460 529 23,000  Level Chicago Center
02:19PM 41.1264 -85.2392 132° Southeast 462 532 23,000 -360 Level Chicago Center
02:20PM 41.0408 -85.1144 132° Southeast 461 531 22,300 -1,560 Descending Chicago Center
02:21PM 40.9575 -84.9961 133° Southeast 446 513 19,800 -2,640 Descending Chicago Center
02:22PM 40.8769 -84.8839 133° Southeast 426 490 16,900 -2,340 Descending Chicago Center
02:23PM 40.8011 -84.7683 131° Southeast 422 486 15,000 -960 Descending Chicago Center
02:24PM 40.7261 -84.6575 132° Southeast 414 476 15,000 -780 Level Chicago Center
02:25PM 40.6436 -84.5422 133° Southeast 405 466 13,500 -1,800 Descending Indianapolis Center
02:26PM 40.6081 -84.4939 134° Southeast 400 460 12,600 -1,860 Descending Indianapolis Center
02:26PM 40.5681 -84.4369 133° Southeast 395 455 11,600 -1,500 Descending Indianapolis Center
02:27PM 40.5344 -84.3903 133° Southeast 387 445 11,100 -600 Descending Indianapolis Center
02:27PM 40.4953 -84.3347 133° Southeast 383 441 11,000 -300 Descending Indianapolis Center
02:28PM 40.4239 -84.2331 133° Southeast 376 433 10,600 -720 Descending Indianapolis Center
02:29PM 40.3464 -84.1928 158° South 307 353 9,600 -1,320 Descending Indianapolis Center
02:30PM 40.2567 -84.1778 173° South 283 326 7,900 -1,740 Descending Indianapolis Center
02:31PM 40.2331 -84.1744 174° South 262 302 7,300 -1,980 Descending Indianapolis Center
02:31PM 40.1825 -84.1664 173° South 273 314 5,900 -1,920 Descending Indianapolis Center
02:32PM 40.1564 -84.1614 172° South 269 310 5,400 -1,500 Descending Indianapolis Center
02:32PM 40.1094 -84.1536 173° South 268 308 4,400 -1,380 Descending Indianapolis Center
02:33PM 40.0861 -84.1519 177° South 254 292 4,000 -1,440 Descending Indianapolis Center